Time;durP1;ratioP1;P1;durP2;ratioP2;P2;SDS_P1;SDS_P2;PMS_P1;PMS_P2;Temp;Humidity;BMP_temperature;BMP_pressure;BME280_temperature;BME280_humidity;BME280_pressure;Samples;Min_cycle;Max_cycle;Signal;HPM_P1;HPM_P2
2023/06/01 03:00:24;;;;;;;16.92;6.88;;;11.90;99.90;;;;;;5906700;23;21131;-73
2023/06/01 03:02:52;;;;;;;14.13;6.30;;;11.90;99.90;;;;;;4973230;28;20483;-75
2023/06/01 03:05:21;;;;;;;15.40;6.75;;;11.90;99.90;;;;;;4973932;28;20046;-74
2023/06/01 03:07:47;;;;;;;15.05;6.68;;;12.00;99.90;;;;;;4975289;28;20042;-74
2023/06/01 03:10:12;;;;;;;13.27;6.22;;;12.00;99.90;;;;;;4990591;28;20502;-75
2023/06/01 03:12:39;;;;;;;17.08;6.85;;;12.00;99.90;;;;;;5012768;28;20053;-75
2023/06/01 03:15:05;;;;;;;15.82;6.18;;;12.00;99.90;;;;;;5012903;28;20452;-73
2023/06/01 03:17:31;;;;;;;14.32;5.90;;;12.00;99.90;;;;;;5012698;28;20046;-74
2023/06/01 03:19:58;;;;;;;13.45;5.88;;;12.00;99.90;;;;;;5012540;28;20092;-75
2023/06/01 03:22:23;;;;;;;15.88;5.28;;;11.90;99.90;;;;;;5012567;28;20060;-75
2023/06/01 03:24:49;;;;;;;9.20;4.80;;;11.90;99.90;;;;;;5012584;28;20062;-74
2023/06/01 03:27:16;;;;;;;11.95;5.00;;;11.80;99.90;;;;;;5012485;28;20041;-74
2023/06/01 03:29:42;;;;;;;9.77;4.30;;;11.80;99.90;;;;;;4996361;28;20511;-74
2023/06/01 03:32:10;;;;;;;10.93;4.75;;;11.80;99.90;;;;;;5012536;28;20045;-73
2023/06/01 03:34:36;;;;;;;12.48;4.72;;;11.90;99.90;;;;;;5012480;28;20048;-73
2023/06/01 03:37:07;;;;;;;13.60;4.95;;;11.90;99.90;;;;;;5012261;28;20053;-75
2023/06/01 03:39:34;;;;;;;11.00;4.32;;;11.90;99.90;;;;;;5012377;28;20593;-75
2023/06/01 03:42:00;;;;;;;8.35;4.85;;;11.90;99.90;;;;;;5012414;28;20046;-75
2023/06/01 03:44:26;;;;;;;12.25;5.18;;;11.90;99.90;;;;;;4995743;28;20045;-76
2023/06/01 03:46:51;;;;;;;13.65;5.45;;;11.80;99.90;;;;;;5013639;28;20379;-74
2023/06/01 03:49:17;;;;;;;13.75;5.35;;;11.80;99.90;;;;;;5012238;28;20041;-74
2023/06/01 03:51:43;;;;;;;11.00;5.10;;;11.80;99.90;;;;;;5012520;28;20058;-75
2023/06/01 03:54:09;;;;;;;12.75;5.50;;;11.80;99.90;;;;;;5012672;28;20121;-75
2023/06/01 03:56:35;;;;;;;17.52;5.38;;;11.80;99.90;;;;;;5012198;28;20616;-74
2023/06/01 03:59:02;;;;;;;11.75;5.55;;;11.90;99.90;;;;;;5012103;28;20148;-74
2023/06/01 04:01:32;;;;;;;14.40;5.38;;;11.90;99.90;;;;;;5013270;28;20076;-74
2023/06/01 04:03:58;;;;;;;14.65;5.82;;;11.90;99.90;;;;;;5012394;28;20046;-74
2023/06/01 04:06:23;;;;;;;12.02;5.40;;;11.90;99.90;;;;;;5012061;28;20548;-74
2023/06/01 04:08:55;;;;;;;11.75;5.53;;;11.90;99.90;;;;;;5012063;28;20081;-74
2023/06/01 04:11:22;;;;;;;14.00;5.10;;;11.90;99.90;;;;;;5012045;28;20065;-74
2023/06/01 04:13:48;;;;;;;15.82;5.65;;;11.90;99.90;;;;;;5013587;28;20041;-74
2023/06/01 04:16:15;;;;;;;14.80;5.40;;;11.90;99.90;;;;;;5011882;28;20080;-74
2023/06/01 04:18:41;;;;;;;9.23;4.32;;;11.90;99.90;;;;;;5011992;28;20493;-73
2023/06/01 04:21:08;;;;;;;11.82;4.78;;;11.90;99.90;;;;;;5013237;28;20030;-74
2023/06/01 04:23:35;;;;;;;9.38;4.30;;;11.90;99.90;;;;;;5011920;28;20049;-75
2023/06/01 04:26:02;;;;;;;9.20;4.45;;;11.90;99.90;;;;;;5013236;28;20077;-74
2023/06/01 04:28:29;;;;;;;12.85;5.07;;;11.90;99.90;;;;;;5013318;28;20472;-75
2023/06/01 04:30:56;;;;;;;9.65;4.70;;;11.90;99.90;;;;;;5013468;28;20109;-74
2023/06/01 04:33:24;;;;;;;10.98;4.47;;;11.90;99.90;;;;;;5012316;28;20050;-75
2023/06/01 04:35:52;;;;;;;14.32;4.22;;;11.90;99.90;;;;;;5013525;28;20041;-74
2023/06/01 04:38:19;;;;;;;9.45;3.85;;;12.00;99.90;;;;;;5012102;28;20046;-75
2023/06/01 04:40:45;;;;;;;10.50;3.88;;;11.90;99.90;;;;;;5012117;28;20069;-75
2023/06/01 04:43:12;;;;;;;10.18;4.25;;;12.00;99.90;;;;;;5013989;28;20037;-76
2023/06/01 04:45:38;;;;;;;9.05;3.92;;;12.00;99.90;;;;;;5011998;28;20049;-75
2023/06/01 04:48:08;;;;;;;12.40;3.97;;;12.00;99.90;;;;;;5013844;28;20070;-75
2023/06/01 04:50:37;;;;;;;10.85;3.65;;;12.00;99.90;;;;;;5013071;28;20045;-75
2023/06/01 04:53:03;;;;;;;12.40;3.95;;;12.00;99.90;;;;;;5013284;28;20124;-75
2023/06/01 04:55:29;;;;;;;9.80;3.85;;;12.00;99.90;;;;;;5011975;28;20184;-75
2023/06/01 04:57:55;;;;;;;12.35;4.18;;;12.00;99.90;;;;;;5012026;28;20054;-75
2023/06/01 05:00:21;;;;;;;11.93;3.90;;;12.00;99.90;;;;;;5012790;28;20527;-76
2023/06/01 05:02:48;;;;;;;10.02;4.10;;;11.90;99.90;;;;;;4999397;28;20038;-75
2023/06/01 05:05:16;;;;;;;12.20;4.25;;;12.00;99.90;;;;;;5017256;28;20084;-75
2023/06/01 05:07:42;;;;;;;10.10;4.28;;;12.00;99.90;;;;;;5015755;28;20466;-75
2023/06/01 05:10:09;;;;;;;12.05;4.28;;;12.10;99.90;;;;;;5015363;28;20095;-75
2023/06/01 05:12:36;;;;;;;14.60;4.93;;;12.10;99.90;;;;;;5015808;28;20117;-75
2023/06/01 05:15:07;;;;;;;8.95;3.78;;;12.20;99.90;;;;;;5016509;28;20038;-75
2023/06/01 05:17:33;;;;;;;8.82;4.07;;;12.20;99.90;;;;;;5015210;28;20050;-75
2023/06/01 05:19:58;;;;;;;11.00;4.03;;;12.10;99.90;;;;;;5016260;28;20124;-76
2023/06/01 05:22:25;;;;;;;9.80;3.83;;;12.10;99.90;;;;;;5015120;28;20044;-74
2023/06/01 05:24:51;;;;;;;8.52;3.95;;;12.10;99.90;;;;;;5014916;28;20052;-75
2023/06/01 05:27:17;;;;;;;14.38;4.30;;;12.10;99.90;;;;;;5015680;28;20133;-75
2023/06/01 05:29:43;;;;;;;8.13;4.00;;;12.10;99.90;;;;;;5016562;28;20065;-72
2023/06/01 05:32:09;;;;;;;13.45;4.15;;;12.10;99.90;;;;;;5014808;28;20084;-74
2023/06/01 05:34:35;;;;;;;11.38;4.05;;;12.10;99.90;;;;;;5015229;28;20470;-75
2023/06/01 05:37:02;;;;;;;12.23;3.90;;;12.10;99.90;;;;;;5014792;28;20070;-75
2023/06/01 05:39:28;;;;;;;10.65;4.18;;;12.10;99.90;;;;;;5016078;28;20113;-74
2023/06/01 05:41:57;;;;;;;10.00;4.00;;;12.10;99.90;;;;;;5015058;28;20454;-76
2023/06/01 05:44:24;;;;;;;16.13;4.63;;;12.20;99.90;;;;;;5014734;28;20046;-76
2023/06/01 05:46:52;;;;;;;11.45;3.80;;;12.20;99.90;;;;;;5014658;28;20096;-76
2023/06/01 05:49:18;;;;;;;11.25;3.90;;;12.20;99.90;;;;;;5014736;28;20058;-76
2023/06/01 05:51:46;;;;;;;12.40;4.03;;;12.30;99.90;;;;;;5014899;28;20120;-75
2023/06/01 05:54:12;;;;;;;7.40;4.05;;;12.20;99.90;;;;;;5014534;28;20085;-76
2023/06/01 05:56:38;;;;;;;9.27;4.03;;;12.30;99.90;;;;;;5015772;28;20037;-76
2023/06/01 05:59:04;;;;;;;12.38;4.30;;;12.30;99.90;;;;;;5015897;28;20057;-75
2023/06/01 06:01:30;;;;;;;13.02;3.90;;;12.30;99.90;;;;;;5013923;28;20038;-75
2023/06/01 06:03:57;;;;;;;10.65;3.70;;;12.30;99.90;;;;;;5014287;28;20038;-80
2023/06/01 06:06:23;;;;;;;12.63;3.85;;;12.30;99.90;;;;;;5014094;28;20050;-74
2023/06/01 06:08:49;;;;;;;13.77;3.90;;;12.30;99.90;;;;;;5013811;28;20049;-75
2023/06/01 06:11:15;;;;;;;10.18;4.32;;;12.30;99.90;;;;;;5015431;28;20042;-75
2023/06/01 06:13:40;;;;;;;10.68;3.97;;;12.30;99.90;;;;;;5014105;28;20397;-76
2023/06/01 06:16:06;;;;;;;16.17;4.80;;;12.30;99.90;;;;;;5012652;28;20505;-76
2023/06/01 06:18:32;;;;;;;8.57;3.25;;;12.30;99.90;;;;;;5015062;28;20030;-76
2023/06/01 06:20:57;;;;;;;9.80;4.03;;;12.40;99.90;;;;;;5013683;28;20432;-75
2023/06/01 06:23:23;;;;;;;11.52;3.80;;;12.40;99.90;;;;;;4997296;28;20413;-76
2023/06/01 06:25:49;;;;;;;11.98;4.03;;;12.50;99.90;;;;;;5014293;28;20053;-75
2023/06/01 06:28:15;;;;;;;9.85;4.00;;;12.50;99.90;;;;;;5014177;28;20452;-75
2023/06/01 06:30:41;;;;;;;12.27;4.90;;;12.50;99.90;;;;;;5014034;28;20370;-75
2023/06/01 06:33:07;;;;;;;11.48;4.20;;;12.50;99.90;;;;;;5015170;28;20069;-75
2023/06/01 06:35:32;;;;;;;11.52;4.10;;;12.50;99.90;;;;;;5015117;28;20038;-75
2023/06/01 06:37:58;;;;;;;17.23;4.90;;;12.60;99.90;;;;;;4997226;28;20517;-76
2023/06/01 06:40:24;;;;;;;11.05;4.32;;;12.50;99.90;;;;;;5013808;28;20046;-76
2023/06/01 06:42:50;;;;;;;10.05;4.47;;;12.50;99.90;;;;;;5015198;28;20381;-75
2023/06/01 06:45:16;;;;;;;10.55;4.30;;;12.50;99.90;;;;;;5015037;28;20049;-76
2023/06/01 06:47:45;;;;;;;10.82;3.80;;;12.50;99.90;;;;;;5013288;28;20049;-76
2023/06/01 06:50:11;;;;;;;13.05;4.30;;;12.50;99.90;;;;;;5015714;28;20069;-74
2023/06/01 06:52:37;;;;;;;10.55;4.40;;;12.50;99.90;;;;;;5014925;28;20041;-74
2023/06/01 06:55:03;;;;;;;11.93;3.83;;;12.50;99.90;;;;;;5013116;28;20038;-75
2023/06/01 06:57:28;;;;;;;20.35;5.05;;;12.60;99.90;;;;;;5013182;28;20089;-73
2023/06/01 06:59:54;;;;;;;12.40;4.20;;;12.60;99.90;;;;;;5013088;28;20038;-74
2023/06/01 07:02:20;;;;;;;11.15;4.10;;;12.60;99.90;;;;;;5014336;28;20057;-76
2023/06/01 07:04:45;;;;;;;11.68;3.70;;;12.70;99.90;;;;;;5013054;28;20045;-75
2023/06/01 07:07:11;;;;;;;10.43;3.60;;;12.70;99.90;;;;;;5012961;28;20080;-75
2023/06/01 07:09:37;;;;;;;12.18;4.18;;;12.70;99.90;;;;;;5013104;28;20042;-75
2023/06/01 07:12:03;;;;;;;13.05;3.92;;;12.70;99.90;;;;;;5014341;28;20042;-75
2023/06/01 07:14:28;;;;;;;12.25;4.00;;;12.70;99.90;;;;;;5012993;28;20129;-75
2023/06/01 07:16:54;;;;;;;14.55;3.95;;;12.80;99.90;;;;;;5014403;28;20061;-75
2023/06/01 07:19:19;;;;;;;16.83;4.45;;;12.80;99.90;;;;;;5013089;28;20508;-75
2023/06/01 07:21:46;;;;;;;10.98;4.00;;;12.90;99.90;;;;;;5012805;28;20088;-75
2023/06/01 07:24:11;;;;;;;14.52;3.95;;;12.90;99.90;;;;;;5012510;28;20042;-75
2023/06/01 07:26:37;;;;;;;11.25;3.83;;;13.00;99.90;;;;;;5012913;28;20038;-75
2023/06/01 07:29:03;;;;;;;10.35;3.72;;;13.00;99.90;;;;;;5013916;28;20042;-76
2023/06/01 07:31:28;;;;;;;7.95;3.33;;;12.90;99.90;;;;;;5012537;28;20034;-75
2023/06/01 07:33:57;;;;;;;14.40;4.05;;;13.00;99.90;;;;;;5012758;28;20045;-75
2023/06/01 07:36:23;;;;;;;12.35;4.30;;;13.00;99.90;;;;;;5013759;28;20042;-76
2023/06/01 07:38:50;;;;;;;10.23;3.30;;;13.00;99.90;;;;;;5012609;28;20481;-75
2023/06/01 07:41:16;;;;;;;10.73;4.05;;;13.10;99.90;;;;;;5012707;28;20390;-75
2023/06/01 07:43:42;;;;;;;8.32;3.17;;;13.00;99.90;;;;;;5012501;28;20042;-75
2023/06/01 07:46:07;;;;;;;8.38;3.03;;;13.10;99.90;;;;;;5012652;28;20077;-75
2023/06/01 07:48:36;;;;;;;7.53;3.13;;;13.10;99.90;;;;;;5012178;28;20428;-75
2023/06/01 07:51:03;;;;;;;7.93;3.40;;;13.10;99.90;;;;;;5012469;28;20085;-75
2023/06/01 07:53:28;;;;;;;8.40;2.90;;;13.20;99.90;;;;;;5012636;28;20125;-75
2023/06/01 07:55:55;;;;;;;8.63;2.55;;;13.20;99.90;;;;;;5012131;28;20132;-75
2023/06/01 07:58:20;;;;;;;9.23;3.20;;;13.20;99.90;;;;;;4995845;28;20474;-74
2023/06/01 08:00:46;;;;;;;10.52;2.50;;;13.20;99.90;;;;;;5012148;28;20044;-75
2023/06/01 08:03:12;;;;;;;7.07;3.28;;;13.20;99.90;;;;;;5013494;28;20474;-75
2023/06/01 08:05:41;;;;;;;11.90;3.05;;;13.20;99.90;;;;;;5013778;28;20042;-75
2023/06/01 08:08:07;;;;;;;17.02;3.28;;;13.30;99.90;;;;;;5013883;28;20049;-74
2023/06/01 08:10:33;;;;;;;10.25;3.00;;;13.30;99.90;;;;;;5014928;28;20030;-74
2023/06/01 08:12:59;;;;;;;8.55;3.42;;;13.30;99.90;;;;;;5013700;28;20117;-75
2023/06/01 08:15:26;;;;;;;12.57;3.47;;;13.30;99.90;;;;;;5013655;28;20073;-75
2023/06/01 08:17:52;;;;;;;9.25;3.03;;;13.40;99.90;;;;;;5012495;28;20363;-75
2023/06/01 08:20:21;;;;;;;10.60;4.13;;;13.40;99.90;;;;;;5013787;28;20113;-75
2023/06/01 08:22:48;;;;;;;10.85;4.15;;;13.40;99.90;;;;;;5013351;28;20339;-74
2023/06/01 08:25:14;;;;;;;10.73;3.80;;;13.40;99.90;;;;;;5013572;28;20046;-75
2023/06/01 08:27:43;;;;;;;12.63;3.70;;;13.40;99.90;;;;;;5012236;28;20060;-74
2023/06/01 08:30:09;;;;;;;10.13;3.60;;;13.50;99.90;;;;;;5012008;28;20092;-74
2023/06/01 08:32:35;;;;;;;8.50;3.38;;;13.50;99.90;;;;;;4995469;28;20481;-74
2023/06/01 08:35:00;;;;;;;7.68;2.85;;;13.50;99.90;;;;;;5013738;28;20034;-75
2023/06/01 08:37:26;;;;;;;4.38;2.53;;;13.50;99.90;;;;;;5015751;28;20037;-76
2023/06/01 08:39:52;;;;;;;11.43;2.30;;;13.50;99.90;;;;;;5015704;28;20203;-75
2023/06/01 08:42:34;;;;;;;5.18;2.30;;;13.60;99.90;;;;;;5015600;28;20124;-75
2023/06/01 08:45:05;;;;;;;6.32;2.72;;;13.60;99.90;;;;;;5016999;28;20120;-75
2023/06/01 08:47:32;;;;;;;5.88;2.40;;;13.70;99.90;;;;;;5015618;28;20046;-74
2023/06/01 08:50:01;;;;;;;5.60;2.65;;;13.70;99.90;;;;;;5015468;28;20428;-74
2023/06/01 08:52:31;;;;;;;6.60;2.75;;;13.70;99.90;;;;;;5015375;28;20041;-74
2023/06/01 08:55:02;;;;;;;6.18;2.95;;;13.70;99.90;;;;;;5017873;28;20046;-75
2023/06/01 08:57:32;;;;;;;6.50;2.70;;;13.80;99.90;;;;;;5017196;28;20424;-74
2023/06/01 08:59:58;;;;;;;6.07;2.30;;;13.70;99.90;;;;;;5015352;28;20041;-75
2023/06/01 09:02:25;;;;;;;6.03;2.42;;;13.70;99.90;;;;;;5015039;28;20037;-75
2023/06/01 09:04:52;;;;;;;6.80;2.58;;;13.80;99.90;;;;;;5015142;28;20053;-76
2023/06/01 09:07:18;;;;;;;6.72;2.60;;;13.80;99.90;;;;;;4998898;28;20091;-77
2023/06/01 09:09:45;;;;;;;6.05;2.70;;;13.80;99.90;;;;;;5014968;28;20042;-74
2023/06/01 09:12:31;;;;;;;5.00;2.33;;;13.70;99.90;;;;;;5014915;28;20054;-74
2023/06/01 09:15:11;;;;;;;5.55;2.85;;;13.60;99.90;;;;;;5015692;28;20050;-76
2023/06/01 09:17:39;;;;;;;6.05;2.60;;;13.60;99.90;;;;;;5014876;28;20076;-75
2023/06/01 09:20:06;;;;;;;5.65;2.42;;;13.70;99.90;;;;;;5016247;28;20038;-75
2023/06/01 09:22:42;;;;;;;6.30;2.60;;;13.70;99.90;;;;;;5014678;28;20393;-75
2023/06/01 09:25:09;;;;;;;6.47;2.25;;;13.70;99.90;;;;;;5016622;28;20041;-75
2023/06/01 09:27:45;;;;;;;6.80;2.42;;;13.80;99.90;;;;;;5014702;28;20061;-75
2023/06/01 09:30:11;;;;;;;4.57;2.40;;;14.00;99.90;;;;;;5014694;28;20049;-74
2023/06/01 09:32:36;;;;;;;6.13;2.10;;;14.10;99.90;;;;;;5014912;28;20050;-74
2023/06/01 09:35:03;;;;;;;6.93;2.15;;;14.10;99.90;;;;;;5015122;28;20490;-76
2023/06/01 09:37:28;;;;;;;7.53;2.97;;;14.00;99.90;;;;;;5016405;28;20049;-75
2023/06/01 09:39:54;;;;;;;8.32;2.92;;;13.90;99.90;;;;;;5014627;28;20168;-74
2023/06/01 09:42:31;;;;;;;10.02;2.65;;;13.80;99.90;;;;;;5014372;28;20065;-75
2023/06/01 09:45:18;;;;;;;9.82;2.55;;;13.70;99.90;;;;;;5014464;28;20046;-75
2023/06/01 09:47:44;;;;;;;8.95;2.60;;;13.60;99.90;;;;;;4997609;28;20042;-75
2023/06/01 09:50:11;;;;;;;10.38;3.20;;;13.50;99.90;;;;;;5014393;28;20374;-74
2023/06/01 09:52:37;;;;;;;12.23;3.30;;;13.60;99.90;;;;;;5014361;28;20056;-75
2023/06/01 09:55:08;;;;;;;12.80;3.45;;;13.50;99.90;;;;;;5014134;28;20045;-76
2023/06/01 09:57:34;;;;;;;11.63;3.55;;;13.50;99.90;;;;;;5014186;28;20124;-75
2023/06/01 10:00:05;;;;;;;10.57;3.25;;;13.40;99.90;;;;;;5014439;28;20116;-74
2023/06/01 10:02:33;;;;;;;8.82;3.53;;;13.40;99.90;;;;;;5014278;28;20038;-75
2023/06/01 10:04:59;;;;;;;10.70;3.47;;;13.40;99.90;;;;;;5014063;28;20079;-75
2023/06/01 10:07:30;;;;;;;14.35;3.97;;;13.40;99.90;;;;;;5014391;28;20049;-75
2023/06/01 10:09:58;;;;;;;13.27;3.80;;;13.40;99.90;;;;;;5015202;28;20041;-74
2023/06/01 10:12:28;;;;;;;11.15;3.60;;;13.40;99.90;;;;;;5015111;28;20041;-74
2023/06/01 10:14:55;;;;;;;10.75;3.78;;;13.50;99.90;;;;;;5013783;28;20050;-75
2023/06/01 10:17:22;;;;;;;11.25;3.30;;;13.50;99.90;;;;;;5013800;28;20045;-75
2023/06/01 10:19:48;;;;;;;11.13;3.55;;;13.50;99.90;;;;;;5014809;28;20045;-75
2023/06/01 10:22:15;;;;;;;13.50;3.92;;;13.50;99.90;;;;;;5013882;28;20041;-75
2023/06/01 10:24:43;;;;;;;15.25;3.60;;;13.50;99.90;;;;;;5013738;28;20055;-73
2023/06/01 10:27:20;;;;;;;11.57;3.70;;;13.50;99.90;;;;;;5013951;28;20053;-77
2023/06/01 10:29:46;;;;;;;15.02;4.10;;;13.50;99.90;;;;;;4997381;28;20057;-77
2023/06/01 10:32:40;;;;;;;11.93;3.50;;;13.50;99.90;;;;;;5013542;28;20042;-75
2023/06/01 10:35:06;;;;;;;15.88;3.53;;;13.60;99.90;;;;;;5015204;28;20045;-76
2023/06/01 10:37:32;;;;;;;13.57;3.00;;;13.60;99.90;;;;;;5013493;28;20504;-77
2023/06/01 10:40:20;;;;;;;13.52;3.50;;;13.60;99.90;;;;;;5013400;28;20033;-75
2023/06/01 10:42:48;;;;;;;13.38;3.25;;;13.60;99.90;;;;;;5013322;28;20042;-73
2023/06/01 10:45:33;;;;;;;11.52;3.63;;;13.60;99.90;;;;;;5013394;28;20057;-77
2023/06/01 10:47:59;;;;;;;12.38;3.03;;;13.70;99.90;;;;;;5013247;28;20184;-77
2023/06/01 10:50:25;;;;;;;13.73;3.60;;;13.70;99.90;;;;;;5014717;28;20048;-77
2023/06/01 10:52:51;;;;;;;10.18;3.05;;;13.70;99.90;;;;;;5014469;28;20030;-77
2023/06/01 10:55:20;;;;;;;9.82;3.13;;;13.80;99.90;;;;;;5014649;28;20041;-74
2023/06/01 10:57:46;;;;;;;15.45;3.55;;;13.80;99.90;;;;;;5012896;28;20049;-75
2023/06/01 11:00:26;;;;;;;10.68;3.35;;;13.90;99.90;;;;;;5013566;28;20487;-77
2023/06/01 11:03:02;;;;;;;13.10;3.92;;;13.90;99.90;;;;;;5012994;28;20045;-74
2023/06/01 11:05:43;;;;;;;14.95;3.72;;;13.80;99.90;;;;;;5012924;28;20049;-76
2023/06/01 11:08:20;;;;;;;11.40;2.63;;;13.80;99.90;;;;;;5014514;28;20053;-77
2023/06/01 11:11:03;;;;;;;12.73;3.40;;;13.80;99.90;;;;;;4996318;28;20073;-74
2023/06/01 11:13:36;;;;;;;10.27;3.00;;;13.90;99.90;;;;;;5014307;28;20041;-74
2023/06/01 11:16:09;;;;;;;10.45;3.28;;;13.90;99.90;;;;;;4996509;28;20490;-78
2023/06/01 11:18:43;;;;;;;8.85;2.55;;;14.00;99.90;;;;;;5014704;28;20038;-78
2023/06/01 11:21:21;;;;;;;8.55;2.78;;;14.00;99.90;;;;;;5014555;28;20042;-76
2023/06/01 11:23:47;;;;;;;6.75;2.75;;;14.10;99.90;;;;;;5013425;28;20488;-77
2023/06/01 11:26:17;;;;;;;8.48;3.08;;;14.20;99.90;;;;;;5012939;28;20053;-76
2023/06/01 11:28:44;;;;;;;11.93;2.58;;;14.30;99.90;;;;;;5014198;28;20045;-74
2023/06/01 11:31:12;;;;;;;10.50;3.13;;;14.30;99.90;;;;;;5012660;28;20050;-76
2023/06/01 11:33:40;;;;;;;9.35;3.50;;;14.30;99.90;;;;;;5013060;28;20151;-76
2023/06/01 11:36:10;;;;;;;11.07;3.80;;;14.30;99.90;;;;;;5012962;28;20077;-75
2023/06/01 11:38:40;;;;;;;9.45;3.40;;;14.30;99.90;;;;;;5012878;28;20046;-76
2023/06/01 11:41:07;;;;;;;10.85;4.20;;;14.40;99.90;;;;;;5012892;28;20042;-77
2023/06/01 11:43:33;;;;;;;14.63;4.00;;;14.40;99.90;;;;;;5013951;28;20509;-74
2023/06/01 11:46:03;;;;;;;10.82;3.17;;;14.40;99.90;;;;;;5012844;28;20049;-77
2023/06/01 11:48:29;;;;;;;15.45;3.85;;;14.50;99.90;;;;;;5005013;28;20038;-75
2023/06/01 11:50:55;;;;;;;11.52;3.65;;;14.60;99.90;;;;;;4992948;28;20112;-73
2023/06/01 11:53:24;;;;;;;16.23;3.90;;;14.60;99.90;;;;;;4976790;28;20042;-76
2023/06/01 11:55:51;;;;;;;15.55;4.22;;;14.60;99.90;;;;;;4992722;28;20045;-77
2023/06/01 11:58:28;;;;;;;13.25;3.75;;;14.70;99.90;;;;;;4993523;28;20475;-74
2023/06/01 12:00:55;;;;;;;13.32;4.18;;;14.70;99.90;;;;;;4992956;28;20038;-73
2023/06/01 12:03:21;;;;;;;10.65;3.78;;;14.70;99.90;;;;;;4994534;28;20038;-75
2023/06/01 12:05:49;;;;;;;14.50;3.47;;;14.60;99.90;;;;;;4976688;28;20375;-74
2023/06/01 12:08:23;;;;;;;10.20;4.30;;;14.70;99.90;;;;;;4992959;28;20074;-75
2023/06/01 12:10:51;;;;;;;10.10;4.05;;;14.70;99.90;;;;;;4996571;28;20046;-76
2023/06/01 12:13:18;;;;;;;13.65;4.13;;;14.80;99.90;;;;;;4998218;28;20046;-74
2023/06/01 12:15:44;;;;;;;10.38;3.72;;;14.80;99.90;;;;;;4998656;28;20042;-78
2023/06/01 12:18:10;;;;;;;11.18;3.72;;;14.90;99.90;;;;;;4996760;28;20174;-76
2023/06/01 12:20:38;;;;;;;8.32;3.35;;;15.00;99.90;;;;;;4996887;28;20043;-74
2023/06/01 12:23:12;;;;;;;10.50;2.90;;;15.00;99.90;;;;;;4997132;28;20045;-75
2023/06/01 12:25:57;;;;;;;11.10;3.45;;;15.10;99.90;;;;;;4996751;28;20121;-74
2023/06/01 12:28:25;;;;;;;8.93;2.80;;;15.10;99.90;;;;;;4996752;28;20049;-76
2023/06/01 12:31:10;;;;;;;10.32;3.17;;;15.20;99.90;;;;;;4980602;28;20121;-75
2023/06/01 12:33:36;;;;;;;9.38;3.13;;;15.20;99.90;;;;;;4997876;28;20528;-75
2023/06/01 12:36:07;;;;;;;8.50;2.80;;;15.10;99.90;;;;;;4996662;28;20084;-75
2023/06/01 12:38:52;;;;;;;5.95;2.85;;;15.10;99.90;;;;;;4997035;28;20046;-76
2023/06/01 12:41:18;;;;;;;6.22;2.70;;;15.20;99.90;;;;;;4996566;28;20042;-75
2023/06/01 12:43:45;;;;;;;10.55;3.22;;;15.20;99.90;;;;;;4996686;28;20053;-76
2023/06/01 12:46:19;;;;;;;9.60;3.45;;;15.20;99.90;;;;;;4998068;28;20073;-77
2023/06/01 12:48:46;;;;;;;6.95;3.13;;;15.10;99.90;;;;;;4996349;28;20505;-78
2023/06/01 12:51:12;;;;;;;8.73;3.47;;;15.10;99.90;;;;;;4996195;28;20057;-75
2023/06/01 12:53:39;;;;;;;9.95;3.33;;;15.00;99.90;;;;;;4996051;28;20081;-78
2023/06/01 12:56:06;;;;;;;7.47;3.17;;;15.00;99.90;;;;;;4996054;28;20047;-75
2023/06/01 12:58:32;;;;;;;7.68;3.22;;;15.00;99.90;;;;;;4997481;28;20038;-76
2023/06/01 13:00:58;;;;;;;6.50;3.13;;;15.00;99.90;;;;;;4996286;28;20043;-77
2023/06/01 13:03:24;;;;;;;8.80;3.20;;;15.00;99.90;;;;;;4996182;28;20497;-77
2023/06/01 13:05:51;;;;;;;8.82;3.28;;;15.00;99.90;;;;;;4996089;28;20109;-77
2023/06/01 13:08:17;;;;;;;6.40;2.53;;;15.10;99.90;;;;;;4979759;28;20494;-75
2023/06/01 13:10:43;;;;;;;9.30;2.88;;;15.10;99.90;;;;;;4995934;28;20057;-77
2023/06/01 13:13:10;;;;;;;10.07;2.83;;;15.10;99.90;;;;;;4995986;28;20125;-77
2023/06/01 13:15:42;;;;;;;8.88;3.05;;;15.20;99.90;;;;;;4997175;28;20042;-76
2023/06/01 13:18:08;;;;;;;7.30;2.97;;;15.20;99.90;;;;;;4997750;28;20042;-75
2023/06/01 13:20:35;;;;;;;7.35;2.90;;;15.10;99.90;;;;;;4994956;28;20038;-75
2023/06/01 13:23:01;;;;;;;11.13;3.45;;;15.10;99.90;;;;;;4995425;28;20034;-74
2023/06/01 13:25:27;;;;;;;9.48;3.30;;;15.00;99.90;;;;;;4997063;28;20045;-78
2023/06/01 13:27:53;;;;;;;11.20;3.25;;;15.00;99.90;;;;;;4997395;28;20169;-75
2023/06/01 13:30:19;;;;;;;11.77;3.38;;;14.90;99.90;;;;;;4996995;28;20503;-77
2023/06/01 13:32:45;;;;;;;8.48;3.63;;;14.90;99.90;;;;;;4995735;28;20042;-77
2023/06/01 13:35:11;;;;;;;13.15;3.33;;;14.90;99.90;;;;;;4995402;28;20058;-76
2023/06/01 13:37:37;;;;;;;12.30;3.50;;;14.90;99.90;;;;;;4995427;28;20498;-76
2023/06/01 13:40:05;;;;;;;14.27;3.78;;;14.80;99.90;;;;;;4997051;28;20085;-76
2023/06/01 13:42:32;;;;;;;13.23;3.80;;;14.70;99.90;;;;;;4995572;28;20056;-76
2023/06/01 13:44:58;;;;;;;15.25;4.25;;;14.60;99.90;;;;;;4995098;28;20101;-76
2023/06/01 13:47:24;;;;;;;11.45;4.30;;;14.50;99.90;;;;;;5001012;28;20046;-75
2023/06/01 13:49:50;;;;;;;14.55;4.55;;;14.50;99.90;;;;;;5000547;28;20041;-76
2023/06/01 13:52:17;;;;;;;12.13;3.60;;;14.40;99.90;;;;;;4995105;28;20042;-75
2023/06/01 13:54:43;;;;;;;7.28;3.25;;;14.40;99.90;;;;;;4995995;28;20089;-74
2023/06/01 13:57:09;;;;;;;11.50;3.55;;;14.40;99.90;;;;;;4995298;28;20038;-74
2023/06/01 13:59:35;;;;;;;10.45;3.78;;;14.40;99.90;;;;;;4995080;28;20097;-75
2023/06/01 14:02:05;;;;;;;12.45;3.85;;;14.40;99.90;;;;;;4995083;28;20054;-76
2023/06/01 14:04:31;;;;;;;10.60;3.38;;;14.40;99.90;;;;;;4995098;28;20070;-77
2023/06/01 14:06:57;;;;;;;13.18;4.10;;;14.40;99.90;;;;;;4994920;28;20046;-77
2023/06/01 14:09:23;;;;;;;17.48;3.78;;;14.30;99.90;;;;;;4994976;28;20049;-77
2023/06/01 14:11:49;;;;;;;13.70;3.60;;;14.20;99.90;;;;;;4996334;28;20045;-76
2023/06/01 14:14:15;;;;;;;9.27;3.17;;;14.20;99.90;;;;;;4995996;28;20066;-77
2023/06/01 14:16:41;;;;;;;12.50;3.70;;;14.20;99.90;;;;;;4994696;28;20050;-76
2023/06/01 14:19:06;;;;;;;6.47;3.35;;;14.20;99.90;;;;;;4994983;28;20118;-76
2023/06/01 14:21:34;;;;;;;9.68;3.83;;;14.20;99.90;;;;;;4995137;28;20165;-77
2023/06/01 14:24:00;;;;;;;13.70;3.83;;;14.20;99.90;;;;;;4994938;28;20052;-77
2023/06/01 14:26:27;;;;;;;10.40;3.28;;;14.20;99.90;;;;;;4995956;28;20042;-76
2023/06/01 14:28:53;;;;;;;8.15;2.75;;;14.30;99.90;;;;;;4995037;28;20081;-77
2023/06/01 14:31:21;;;;;;;8.10;2.80;;;14.20;99.90;;;;;;4994660;28;20085;-75
2023/06/01 14:33:48;;;;;;;11.27;2.58;;;14.20;99.90;;;;;;4978003;28;20046;-76
2023/06/01 14:36:14;;;;;;;8.88;2.90;;;14.10;99.90;;;;;;4994250;28;20129;-77
2023/06/01 14:38:40;;;;;;;6.35;2.80;;;14.10;99.90;;;;;;4994247;28;20069;-75
2023/06/01 14:41:06;;;;;;;8.63;2.75;;;14.00;99.90;;;;;;4994495;28;20038;-74
2023/06/01 14:43:32;;;;;;;12.77;3.03;;;14.10;99.90;;;;;;4994290;28;20091;-77
2023/06/01 14:45:57;;;;;;;8.70;3.22;;;14.20;99.90;;;;;;4995503;28;20069;-75
2023/06/01 14:48:23;;;;;;;10.90;2.90;;;14.20;99.90;;;;;;4995072;28;20048;-75
2023/06/01 14:50:49;;;;;;;9.73;2.90;;;14.20;99.90;;;;;;4995053;28;20044;-75
2023/06/01 14:53:15;;;;;;;7.85;2.85;;;14.20;99.90;;;;;;4993543;28;20038;-75
2023/06/01 14:55:41;;;;;;;10.02;3.78;;;14.30;99.90;;;;;;4994675;28;20034;-76
2023/06/01 14:58:07;;;;;;;10.82;3.35;;;14.30;99.90;;;;;;4995084;28;20034;-75
2023/06/01 15:00:34;;;;;;;8.80;3.20;;;14.20;99.90;;;;;;4993474;28;20057;-74
2023/06/01 15:03:01;;;;;;;8.27;2.70;;;14.20;99.90;;;;;;4977256;28;20046;-74
2023/06/01 15:05:27;;;;;;;11.85;4.25;;;14.20;99.90;;;;;;4993364;28;20057;-74
2023/06/01 15:07:53;;;;;;;14.20;5.65;;;14.20;99.90;;;;;;4993258;28;20058;-75
2023/06/01 15:10:18;;;;;;;9.63;4.30;;;14.10;99.90;;;;;;4993020;28;20081;-75
2023/06/01 15:12:44;;;;;;;12.52;3.17;;;14.10;99.90;;;;;;4993530;28;20072;-74
2023/06/01 15:15:10;;;;;;;10.25;2.97;;;14.20;99.90;;;;;;4995136;28;20088;-74
2023/06/01 15:17:36;;;;;;;10.32;2.75;;;14.20;99.90;;;;;;4993636;28;20049;-74
2023/06/01 15:20:02;;;;;;;8.68;2.60;;;14.20;99.90;;;;;;4994478;28;20117;-74
2023/06/01 15:22:27;;;;;;;10.50;3.00;;;14.30;99.90;;;;;;4993461;28;20165;-77
2023/06/01 15:24:53;;;;;;;8.18;2.75;;;14.30;99.90;;;;;;4994959;28;20046;-77
2023/06/01 15:27:19;;;;;;;7.80;2.45;;;14.30;99.90;;;;;;4993723;28;20050;-74
2023/06/01 15:29:45;;;;;;;7.32;2.53;;;14.30;99.90;;;;;;4993375;28;20054;-75
2023/06/01 15:32:11;;;;;;;11.05;2.30;;;14.40;99.90;;;;;;4994758;28;20076;-76
2023/06/01 15:34:41;;;;;;;8.75;2.83;;;14.40;99.90;;;;;;4994944;28;20038;-77
2023/06/01 15:37:08;;;;;;;7.80;2.38;;;14.30;99.90;;;;;;4993264;28;20049;-75
2023/06/01 15:39:37;;;;;;;6.20;2.30;;;14.30;99.90;;;;;;4993509;28;20105;-76
2023/06/01 15:42:08;;;;;;;6.60;2.70;;;14.30;99.90;;;;;;4994410;28;20038;-74